Time;durP1;ratioP1;P1;durP2;ratioP2;P2;SDS_P1;SDS_P2;PMS_P1;PMS_P2;Temp;Humidity;BMP_temperature;BMP_pressure;BME280_temperature;BME280_humidity;BME280_pressure;Samples;Min_cycle;Max_cycle;Signal;HPM_P1;HPM_P2
2021/10/23 00:01:54;;;;;;;14.68;8.33;;;;;;;9.85;73.17;97823.13;1776374;79;20959;-77
2021/10/23 00:04:21;;;;;;;17.50;8.18;;;;;;;9.90;73.24;97827.83;1781445;79;21000;-77
2021/10/23 00:06:48;;;;;;;13.08;7.97;;;;;;;9.95;73.58;97831.20;1793450;80;20980;-77
2021/10/23 00:09:14;;;;;;;13.20;8.00;;;;;;;9.95;73.51;97832.52;1797718;80;20991;-77
2021/10/23 00:11:41;;;;;;;14.47;8.18;;;;;;;9.98;73.39;97835.53;1790620;80;21294;-77
2021/10/23 00:14:07;;;;;;;13.32;8.20;;;;;;;9.98;73.39;97822.30;1738788;82;21028;-77
2021/10/23 00:16:34;;;;;;;13.72;7.47;;;;;;;9.95;73.43;97834.29;1768236;81;20978;-77
2021/10/23 00:19:00;;;;;;;12.07;7.87;;;;;;;9.95;73.23;97840.47;1797725;80;21428;-77
2021/10/23 00:21:26;;;;;;;13.10;7.40;;;;;;;9.94;72.98;97832.12;1768424;81;20999;-77
2021/10/23 00:23:53;;;;;;;12.65;7.83;;;;;;;9.96;72.81;97836.05;1797780;80;20987;-78
2021/10/23 00:26:19;;;;;;;14.50;8.25;;;;;;;9.93;72.98;97834.81;1782983;80;21046;-77
2021/10/23 00:28:46;;;;;;;14.28;7.37;;;;;;;9.92;72.76;97835.73;1783139;80;21043;-77
2021/10/23 00:31:12;;;;;;;12.93;7.22;;;;;;;9.86;72.59;97844.27;1777657;80;20959;-77
2021/10/23 00:33:39;;;;;;;8.98;5.35;;;;;;;9.83;72.35;97844.34;1784843;80;20952;-77
2021/10/23 00:36:06;;;;;;;11.10;5.92;;;;;;;9.77;72.82;97829.97;1762875;81;22100;-77
2021/10/23 00:38:34;;;;;;;9.20;6.10;;;;;;;9.80;72.60;97836.95;1725852;81;21026;-77
2021/10/23 00:41:00;;;;;;;10.05;5.78;;;;;;;9.81;72.54;97834.71;1722497;83;21012;-77
2021/10/23 00:43:27;;;;;;;13.28;7.17;;;;;;;9.81;72.59;97832.06;1738316;82;21074;-77
2021/10/23 00:45:54;;;;;;;11.63;6.78;;;;;;;9.81;72.94;97827.65;1738403;82;21035;-77
2021/10/23 00:48:20;;;;;;;16.67;7.33;;;;;;;9.82;72.53;97833.34;1703390;84;21076;-77
2021/10/23 00:50:48;;;;;;;13.30;6.70;;;;;;;9.81;72.67;97834.71;1746741;81;21003;-78
2021/10/23 00:53:15;;;;;;;12.53;6.87;;;;;;;9.81;72.48;97834.71;1788584;80;21027;-77
2021/10/23 00:55:44;;;;;;;11.57;6.17;;;;;;;9.81;72.67;97832.94;1746345;80;21382;-77
2021/10/23 00:58:10;;;;;;;10.30;5.90;;;;;;;9.80;73.75;97837.80;1768484;81;21440;-77
2021/10/23 01:00:37;;;;;;;13.38;5.90;;;;;;;9.73;73.55;97827.88;1796325;80;20983;-77
2021/10/23 01:03:03;;;;;;;9.95;6.03;;;;;;;9.71;73.27;97836.30;1749705;80;21080;-77
2021/10/23 01:05:30;;;;;;;11.28;5.92;;;;;;;9.61;74.69;97837.03;1791041;80;21031;-77
2021/10/23 01:07:59;;;;;;;13.28;6.35;;;;;;;9.59;74.68;97842.80;1764137;81;21278;-77
2021/10/23 01:10:26;;;;;;;9.58;6.42;;;;;;;9.53;74.71;97839.45;1789533;79;21063;-78
2021/10/23 01:12:56;;;;;;;12.05;6.78;;;;;;;9.51;74.84;97835.55;1776916;80;21023;-77
2021/10/23 01:15:28;;;;;;;15.18;6.40;;;;;;;9.48;75.14;97835.16;1785496;80;20956;-78
2021/10/23 01:17:57;;;;;;;12.60;6.40;;;;;;;9.47;74.59;97829.94;1785425;80;21063;-78
2021/10/23 01:20:26;;;;;;;10.78;6.40;;;;;;;9.48;74.45;97834.30;1785562;80;20976;-78
2021/10/23 01:22:53;;;;;;;14.00;7.12;;;;;;;9.48;74.82;97833.83;1785522;80;21414;-79
2021/10/23 01:25:24;;;;;;;13.88;8.05;;;;;;;9.46;74.38;97831.70;1790878;80;21385;-78
2021/10/23 01:27:54;;;;;;;14.03;6.80;;;;;;;9.46;74.36;97826.84;1790852;80;21035;-78
2021/10/23 01:30:23;;;;;;;15.15;8.03;;;;;;;9.43;74.37;97820.34;1790670;80;20929;-78
2021/10/23 01:32:52;;;;;;;15.18;8.20;;;;;;;9.43;74.22;97818.55;1823000;79;21437;-78
2021/10/23 01:35:21;;;;;;;11.75;6.90;;;;;;;9.43;74.33;97816.38;1824784;79;21392;-78
2021/10/23 01:37:49;;;;;;;10.18;6.50;;;;;;;9.42;74.16;97822.58;1824834;79;20991;-79
2021/10/23 01:40:20;;;;;;;10.72;6.35;;;;;;;9.41;74.49;97819.50;1824773;79;20939;-78
2021/10/23 01:42:47;;;;;;;11.38;6.08;;;;;;;9.40;75.72;97825.70;1821236;78;21022;-78
2021/10/23 01:45:14;;;;;;;11.20;6.70;;;;;;;9.38;75.38;97835.00;1791816;80;20999;-78
2021/10/23 01:47:43;;;;;;;10.75;5.97;;;;;;;9.36;74.82;97829.77;1791676;80;20952;-78
2021/10/23 01:50:21;;;;;;;11.73;6.35;;;;;;;9.34;76.26;97832.90;1813148;79;20994;-79
2021/10/23 01:52:49;;;;;;;10.58;7.00;;;;;;;9.34;74.64;97843.95;1797169;79;21366;-79
2021/10/23 01:55:17;;;;;;;13.88;6.12;;;;;;;9.30;77.66;97846.27;1790475;80;21473;-79
2021/10/23 01:57:45;;;;;;;13.22;6.62;;;;;;;9.27;77.33;97841.92;1790355;80;21087;-79
2021/10/23 02:00:17;;;;;;;10.63;5.85;;;;;;;9.24;75.74;97840.23;1789111;80;20995;-79
2021/10/23 02:02:43;;;;;;;11.70;6.60;;;;;;;9.23;77.38;97836.30;1824687;79;21081;-79
2021/10/23 02:05:10;;;;;;;13.32;6.17;;;;;;;9.21;75.95;97834.13;1823321;78;21002;-79
2021/10/23 02:07:37;;;;;;;12.03;6.60;;;;;;;9.23;75.62;97842.44;1822141;79;21648;-79
2021/10/23 02:10:06;;;;;;;12.30;6.40;;;;;;;9.22;76.18;97846.47;1810199;79;20994;-79
2021/10/23 02:12:33;;;;;;;9.20;6.20;;;;;;;9.21;76.73;97848.67;1822746;79;21397;-79
2021/10/23 02:15:01;;;;;;;10.80;5.95;;;;;;;9.20;76.81;97844.30;1814202;79;20960;-79
2021/10/23 02:17:27;;;;;;;9.08;4.85;;;;;;;9.18;77.28;97839.52;1787169;79;21051;-79
2021/10/23 02:19:54;;;;;;;10.23;5.70;;;;;;;9.15;77.87;97837.83;1794529;80;21031;-79
2021/10/23 02:22:20;;;;;;;9.50;5.10;;;;;;;9.20;77.35;97840.34;1793382;80;20995;-79
2021/10/23 02:24:47;;;;;;;10.40;5.30;;;;;;;9.19;77.51;97853.15;1793786;80;21335;-78
2021/10/23 02:27:13;;;;;;;8.85;5.75;;;;;;;9.21;78.13;97851.31;1793995;80;21016;-79
2021/10/23 02:29:40;;;;;;;8.45;4.70;;;;;;;9.24;77.32;97853.89;1793725;80;21064;-78
2021/10/23 02:32:06;;;;;;;9.15;5.08;;;;;;;9.24;78.07;97860.50;1795719;79;20947;-78
2021/10/23 02:34:33;;;;;;;9.90;4.90;;;;;;;9.28;77.40;97865.25;1795710;80;20968;-78
2021/10/23 02:37:01;;;;;;;11.57;6.08;;;;;;;9.33;77.22;97869.52;1795482;80;21397;-78
2021/10/23 02:39:27;;;;;;;7.28;4.70;;;;;;;9.36;77.01;97866.80;1795712;80;20968;-79
2021/10/23 02:41:54;;;;;;;7.65;4.33;;;;;;;9.42;77.36;97856.97;1795171;80;21050;-79
2021/10/23 02:44:20;;;;;;;9.20;4.17;;;;;;;9.46;77.09;97864.77;1794529;80;20968;-79
2021/10/23 02:46:47;;;;;;;8.60;5.03;;;;;;;9.53;77.13;97881.78;1794247;80;21285;-80
2021/10/23 02:49:13;;;;;;;8.15;4.85;;;;;;;9.56;76.90;97884.36;1804311;79;21014;-79
2021/10/23 02:51:41;;;;;;;7.67;4.83;;;;;;;9.61;76.71;97876.72;1807788;79;21428;-80
2021/10/23 02:54:09;;;;;;;8.55;4.22;;;;;;;9.60;76.71;97868.34;1795544;80;21357;-80
2021/10/23 02:56:36;;;;;;;11.18;5.50;;;;;;;9.60;76.66;97869.66;1795020;80;20976;-79
2021/10/23 02:59:02;;;;;;;12.78;6.33;;;;;;;9.62;76.31;97863.89;1790239;80;21008;-79
2021/10/23 03:01:30;;;;;;;14.78;6.37;;;;;;;9.57;75.82;97863.59;1795518;80;20991;-79
2021/10/23 03:03:56;;;;;;;11.45;6.05;;;;;;;9.53;75.73;97867.23;1793932;80;21011;-79
2021/10/23 03:06:23;;;;;;;11.38;5.28;;;;;;;9.51;75.58;97862.86;1764125;81;21418;-78
2021/10/23 03:08:49;;;;;;;9.50;5.50;;;;;;;9.48;75.61;97870.87;1789749;80;21011;-78
2021/10/23 03:11:16;;;;;;;8.55;5.28;;;;;;;9.43;75.44;97889.11;1791749;80;20952;-78
2021/10/23 03:13:43;;;;;;;10.35;5.37;;;;;;;9.33;75.56;97894.64;1791812;80;21015;-78
2021/10/23 03:16:11;;;;;;;9.35;5.92;;;;;;;9.24;75.73;97908.10;1752188;80;21476;-78
2021/10/23 03:18:38;;;;;;;10.30;5.72;;;;;;;9.15;75.61;97906.57;1772983;80;21015;-78
2021/10/23 03:21:05;;;;;;;10.32;6.22;;;;;;;9.03;75.31;97916.11;1758696;81;21038;-78
2021/10/23 03:23:33;;;;;;;8.73;5.22;;;;;;;8.91;75.58;97926.09;1760432;81;21392;-78
2021/10/23 03:26:00;;;;;;;8.48;5.60;;;;;;;8.81;75.42;97932.50;1764104;81;21078;-78
2021/10/23 03:28:26;;;;;;;8.90;5.25;;;;;;;8.69;75.87;97936.30;1791967;80;21377;-79
2021/10/23 03:30:53;;;;;;;10.45;5.22;;;;;;;8.59;75.90;97938.26;1791980;80;21020;-79
2021/10/23 03:33:19;;;;;;;8.28;5.42;;;;;;;8.50;75.87;97934.03;1791218;80;21026;-79
2021/10/23 03:35:48;;;;;;;11.43;5.55;;;;;;;8.42;75.81;97934.64;1790414;80;21016;-79
2021/10/23 03:38:14;;;;;;;7.62;5.00;;;;;;;8.30;75.93;97936.66;1790460;80;21034;-79
2021/10/23 03:40:41;;;;;;;8.00;4.50;;;;;;;8.23;76.24;97925.81;1790293;80;20989;-79
2021/10/23 03:43:07;;;;;;;7.22;4.58;;;;;;;8.16;76.22;97932.99;1792124;80;21027;-79
2021/10/23 03:45:34;;;;;;;10.90;5.15;;;;;;;8.07;76.26;97925.27;1792004;80;21065;-78
2021/10/23 03:48:00;;;;;;;10.35;4.60;;;;;;;7.98;76.43;97928.97;1791912;80;21365;-79
2021/10/23 03:50:33;;;;;;;9.10;4.20;;;;;;;7.89;76.72;97923.88;1823251;79;21507;-78
2021/10/23 03:53:00;;;;;;;8.88;4.87;;;;;;;7.82;76.52;97917.84;1824916;79;20975;-77
2021/10/23 03:55:27;;;;;;;6.40;4.30;;;;;;;7.75;76.88;97913.57;1810886;79;20986;-77
2021/10/23 03:57:53;;;;;;;7.40;4.03;;;;;;;7.73;76.62;97914.06;1791640;79;21366;-77
2021/10/23 04:00:20;;;;;;;8.68;4.33;;;;;;;7.65;76.84;97916.84;1790699;80;20991;-77
2021/10/23 04:02:47;;;;;;;8.33;4.65;;;;;;;7.58;77.22;97921.80;1790385;80;20952;-77
2021/10/23 04:05:14;;;;;;;9.40;4.37;;;;;;;7.51;78.84;97927.64;1789886;79;21000;-78
2021/10/23 04:07:40;;;;;;;7.78;4.42;;;;;;;7.44;77.68;97926.02;1789763;80;20992;-78
2021/10/23 04:10:08;;;;;;;9.13;4.85;;;;;;;7.37;78.60;97924.82;1790290;80;21019;-78
2021/10/23 04:12:34;;;;;;;12.13;5.92;;;;;;;7.35;78.20;97917.38;1790824;80;21007;-78
2021/10/23 04:15:01;;;;;;;11.33;5.72;;;;;;;7.33;80.25;97926.20;1791657;80;20947;-78
2021/10/23 04:17:27;;;;;;;9.90;5.00;;;;;;;7.31;78.78;97924.91;1791659;80;20976;-79
2021/10/23 04:19:54;;;;;;;10.60;5.87;;;;;;;7.29;78.50;97914.85;1814993;79;20986;-78
2021/10/23 04:22:21;;;;;;;11.75;5.97;;;;;;;7.26;78.45;97917.09;1809893;79;21398;-78
2021/10/23 04:24:50;;;;;;;10.03;5.12;;;;;;;7.23;78.46;97913.65;1791613;80;21049;-78
2021/10/23 04:27:19;;;;;;;8.03;4.78;;;;;;;7.20;78.63;97906.66;1791779;80;20991;-78
2021/10/23 04:29:46;;;;;;;9.75;5.15;;;;;;;7.18;78.69;97910.22;1791669;80;20948;-79
2021/10/23 04:32:13;;;;;;;8.55;5.10;;;;;;;7.15;79.87;97908.52;1792106;80;20947;-78
2021/10/23 04:34:39;;;;;;;8.33;5.35;;;;;;;7.12;79.46;97918.66;1791891;80;21481;-79
2021/10/23 04:37:06;;;;;;;9.33;4.95;;;;;;;7.09;79.41;97931.88;1777483;79;21002;-79
2021/10/23 04:39:33;;;;;;;9.55;5.03;;;;;;;7.07;79.54;97930.16;1791963;80;21052;-78
2021/10/23 04:42:00;;;;;;;9.45;5.10;;;;;;;7.03;79.09;97938.58;1792079;80;21029;-79
2021/10/23 04:44:27;;;;;;;7.72;4.40;;;;;;;7.01;80.66;97941.66;1763675;80;20984;-78
2021/10/23 04:46:53;;;;;;;7.33;4.40;;;;;;;6.97;81.33;97945.23;1791675;79;20972;-78
2021/10/23 04:49:20;;;;;;;10.70;4.70;;;;;;;6.95;80.41;97949.23;1794269;79;21432;-79
2021/10/23 04:51:46;;;;;;;7.70;4.50;;;;;;;6.94;80.43;97954.06;1790375;80;20980;-78
2021/10/23 04:54:12;;;;;;;9.43;4.87;;;;;;;6.93;80.86;97956.28;1790492;80;20989;-79
2021/10/23 04:56:39;;;;;;;7.33;4.20;;;;;;;6.93;82.05;97954.95;1790308;80;21481;-78
2021/10/23 04:59:05;;;;;;;8.00;4.42;;;;;;;6.96;81.04;97959.31;1791848;80;21019;-78
2021/10/23 05:01:32;;;;;;;9.05;4.17;;;;;;;6.98;81.74;97966.30;1792008;80;21005;-79
2021/10/23 05:03:58;;;;;;;8.88;4.72;;;;;;;7.02;81.47;97964.94;1791016;80;21366;-79
2021/10/23 05:06:25;;;;;;;11.10;4.80;;;;;;;7.00;81.30;97964.52;1786662;80;21473;-78
2021/10/23 05:08:51;;;;;;;9.18;4.70;;;;;;;7.01;81.95;97964.06;1785778;80;20976;-79
2021/10/23 05:11:17;;;;;;;8.83;4.95;;;;;;;7.07;81.97;97973.64;1785926;80;20991;-79
2021/10/23 05:13:44;;;;;;;11.70;5.37;;;;;;;7.13;82.06;97972.22;1786569;80;21830;-79
2021/10/23 05:16:10;;;;;;;9.90;4.75;;;;;;;7.14;82.05;97987.13;1785868;80;21017;-79
2021/10/23 05:18:37;;;;;;;9.48;4.75;;;;;;;7.09;81.92;97994.24;1793854;79;20952;-79
2021/10/23 05:21:03;;;;;;;9.13;4.85;;;;;;;7.02;83.24;97996.09;1796298;79;20927;-79
2021/10/23 05:23:31;;;;;;;8.45;4.50;;;;;;;7.07;83.96;98000.00;1784637;79;21039;-79
2021/10/23 05:25:59;;;;;;;9.58;4.75;;;;;;;7.08;83.33;98000.41;1784585;80;21008;-79
2021/10/23 05:28:25;;;;;;;11.45;4.72;;;;;;;7.09;82.82;98014.01;1786240;80;20917;-79
2021/10/23 05:30:52;;;;;;;8.10;5.10;;;;;;;7.08;82.51;98018.42;1787391;80;20995;-79
2021/10/23 05:33:18;;;;;;;7.95;4.60;;;;;;;7.04;82.03;98019.80;1787610;80;21000;-79
2021/10/23 05:35:44;;;;;;;11.57;5.50;;;;;;;7.00;82.49;98029.08;1787522;80;21031;-76
2021/10/23 05:38:11;;;;;;;9.63;5.47;;;;;;;6.95;83.94;98020.81;1786185;80;20973;-79
2021/10/23 05:40:37;;;;;;;10.38;5.72;;;;;;;6.93;82.41;98036.63;1785527;80;21019;-78
2021/10/23 05:43:04;;;;;;;11.43;6.25;;;;;;;6.92;82.71;98041.48;1785826;80;21446;-77
2021/10/23 05:45:31;;;;;;;13.08;5.67;;;;;;;6.92;82.84;98042.80;1785804;80;21021;-77
2021/10/23 05:47:57;;;;;;;11.08;5.92;;;;;;;6.88;84.29;98043.73;1786690;79;20948;-79
2021/10/23 05:50:24;;;;;;;8.58;5.45;;;;;;;6.87;82.86;98045.95;1784446;79;21035;-79
2021/10/23 05:52:50;;;;;;;9.45;5.70;;;;;;;6.85;83.20;98051.23;1787546;80;20972;-77
2021/10/23 05:55:17;;;;;;;7.37;5.33;;;;;;;6.86;82.65;98058.70;1786313;80;21363;-79
2021/10/23 05:57:44;;;;;;;9.08;5.55;;;;;;;6.84;84.28;98053.45;1786220;80;20952;-78
2021/10/23 06:00:13;;;;;;;11.10;6.00;;;;;;;6.82;82.70;98049.95;1785791;80;20984;-77
2021/10/23 06:02:44;;;;;;;11.33;5.85;;;;;;;6.82;82.88;98057.00;1785951;80;20925;-78
2021/10/23 06:05:11;;;;;;;11.12;5.87;;;;;;;6.82;82.89;98066.22;1785267;80;20977;-78
2021/10/23 06:07:42;;;;;;;12.00;5.80;;;;;;;6.82;84.41;98076.30;1767131;81;21002;-78
2021/10/23 06:10:12;;;;;;;9.95;6.15;;;;;;;6.83;85.01;98081.13;1783159;80;21008;-79
2021/10/23 06:12:39;;;;;;;11.78;5.80;;;;;;;6.86;83.60;98094.27;1733833;81;22291;-78
2021/10/23 06:15:08;;;;;;;11.50;5.90;;;;;;;6.89;83.57;98084.98;1744784;81;21098;-78
2021/10/23 06:17:34;;;;;;;10.10;6.20;;;;;;;6.91;84.17;98100.34;1738583;82;21033;-77
2021/10/23 06:20:02;;;;;;;10.65;5.67;;;;;;;6.94;86.88;98109.98;1761966;81;21383;-78
2021/10/23 06:22:30;;;;;;;9.93;5.85;;;;;;;6.95;84.55;98103.81;1784757;80;20976;-77
2021/10/23 06:24:56;;;;;;;9.98;5.65;;;;;;;6.97;83.96;98108.17;1737065;83;21042;-77
2021/10/23 06:27:23;;;;;;;10.50;5.62;;;;;;;7.02;85.03;98112.51;1784704;80;20999;-79
2021/10/23 06:29:49;;;;;;;10.38;6.30;;;;;;;7.06;84.23;98120.80;1735963;83;21388;-78
2021/10/23 06:32:16;;;;;;;10.18;6.00;;;;;;;7.11;83.88;98121.14;1783235;80;21410;-78
2021/10/23 06:34:45;;;;;;;9.18;5.97;;;;;;;7.16;83.59;98126.37;1767618;81;21003;-79
2021/10/23 06:37:12;;;;;;;12.70;7.25;;;;;;;7.25;83.67;98135.48;1783449;80;21378;-78
2021/10/23 06:39:39;;;;;;;11.12;6.45;;;;;;;7.33;84.05;98140.64;1769181;80;21021;-78
2021/10/23 06:42:06;;;;;;;9.45;5.83;;;;;;;7.41;83.89;98141.84;1782205;80;20984;-79
2021/10/23 06:44:33;;;;;;;8.75;5.67;;;;;;;7.48;84.94;98140.84;1782398;80;21379;-77
2021/10/23 06:46:59;;;;;;;10.43;5.67;;;;;;;7.52;83.99;98146.97;1782293;80;21004;-86
2021/10/23 06:49:25;;;;;;;10.38;5.10;;;;;;;7.57;83.53;98160.08;1793222;80;20961;-87
2021/10/23 06:51:52;;;;;;;8.45;5.22;;;;;;;7.63;83.34;98159.98;1812012;79;21452;-86
2021/10/23 06:54:19;;;;;;;9.08;5.50;;;;;;;7.73;83.14;98153.66;1812338;79;20948;-87
2021/10/23 06:56:45;;;;;;;10.00;4.58;;;;;;;7.84;82.72;98165.84;1787994;79;21007;-86
2021/10/23 06:59:11;;;;;;;8.68;4.80;;;;;;;7.95;80.85;98164.33;1785128;79;20932;-86
2021/10/23 07:01:38;;;;;;;6.53;3.90;;;;;;;8.04;80.77;98161.55;1784745;79;21087;-76
2021/10/23 07:04:04;;;;;;;7.37;3.75;;;;;;;8.14;79.58;98168.41;1784015;80;20996;-86
2021/10/23 07:06:33;;;;;;;7.80;3.90;;;;;;;8.23;76.76;98167.40;1779882;80;20957;-80
2021/10/23 07:08:59;;;;;;;6.17;3.50;;;;;;;8.32;74.81;98166.36;1793509;80;21062;-84
2021/10/23 07:11:28;;;;;;;4.87;2.90;;;;;;;8.41;75.99;98153.43;1793679;80;21002;-85
2021/10/23 07:13:56;;;;;;;5.85;2.17;;;;;;;8.48;75.44;98159.04;1791883;78;20966;-86
2021/10/23 07:16:23;;;;;;;6.22;2.40;;;;;;;8.55;71.46;98158.48;1803116;78;21076;-81
2021/10/23 07:18:52;;;;;;;4.90;2.30;;;;;;;8.64;64.18;98158.78;1786654;80;21435;-80
2021/10/23 07:21:21;;;;;;;4.37;1.90;;;;;;;8.70;68.25;98159.53;1788366;80;20941;-81
2021/10/23 07:23:49;;;;;;;8.05;2.17;;;;;;;8.77;64.31;98161.61;1814115;78;20958;-82
2021/10/23 07:26:18;;;;;;;5.03;1.72;;;;;;;8.83;67.08;98157.52;1820769;78;21039;-80
2021/10/23 07:28:44;;;;;;;4.17;2.05;;;;;;;8.90;66.22;98170.16;1793710;80;21068;-77
2021/10/23 07:31:18;;;;;;;6.12;2.33;;;;;;;8.95;64.67;98177.98;1793675;80;20985;-88
2021/10/23 07:33:46;;;;;;;5.15;2.40;;;;;;;8.97;62.18;98180.17;1794488;80;21476;-80
2021/10/23 07:36:16;;;;;;;3.55;1.92;;;;;;;9.02;60.07;98180.94;1793727;80;21383;-80
2021/10/23 07:38:41;;;;;;;4.05;2.20;;;;;;;9.07;62.33;98190.97;1793446;80;21045;-80
2021/10/23 07:41:08;;;;;;;5.78;1.92;;;;;;;9.14;62.51;98185.55;1797702;78;21045;-80
2021/10/23 07:43:34;;;;;;;60.52;4.90;;;;;;;9.17;62.08;98171.80;1827977;78;21001;-80
2021/10/23 07:46:02;;;;;;;10.82;2.50;;;;;;;9.23;62.79;98182.72;1827930;78;20949;-80
2021/10/23 07:48:28;;;;;;;6.20;2.10;;;;;;;9.30;62.34;98188.75;1817503;78;21476;-81
2021/10/23 07:50:55;;;;;;;5.80;1.92;;;;;;;9.35;59.13;98187.73;1795764;80;20976;-80
2021/10/23 07:53:21;;;;;;;6.25;2.30;;;;;;;9.42;58.64;98190.27;1795281;80;21393;-81
2021/10/23 07:55:48;;;;;;;17.80;8.83;;;;;;;9.45;57.78;98184.88;1795465;80;20964;-81
2021/10/23 07:58:14;;;;;;;5.15;2.83;;;;;;;9.45;59.63;98180.92;1795133;78;20979;-82
2021/10/23 08:00:41;;;;;;;6.70;2.15;;;;;;;9.51;59.06;98192.23;1795371;78;20912;-81
2021/10/23 08:03:07;;;;;;;5.42;3.25;;;;;;;9.51;56.92;98186.09;1797104;78;21545;-81
2021/10/23 08:05:38;;;;;;;7.80;2.50;;;;;;;9.56;58.86;98193.48;1789535;80;21049;-81
2021/10/23 08:08:06;;;;;;;5.83;2.77;;;;;;;9.61;58.88;98188.06;1766716;81;21006;-80
2021/10/23 08:10:34;;;;;;;6.80;2.47;;;;;;;9.67;57.34;98192.36;1766504;81;20943;-81
2021/10/23 08:13:04;;;;;;;3.80;2.20;;;;;;;9.74;57.12;98178.06;1766363;81;20998;-81
2021/10/23 08:15:32;;;;;;;5.42;2.30;;;;;;;9.84;58.00;98174.30;1777082;80;21092;-81
2021/10/23 08:18:02;;;;;;;5.35;2.20;;;;;;;9.93;56.70;98193.52;1793810;80;21414;-83
2021/10/23 08:20:32;;;;;;;7.12;2.35;;;;;;;10.00;56.18;98191.12;1771104;78;21049;-84
2021/10/23 08:23:00;;;;;;;4.50;2.55;;;;;;;10.05;57.01;98173.35;1766576;81;21443;-81
2021/10/23 08:25:27;;;;;;;3.50;2.15;;;;;;;10.12;58.43;98180.25;1766549;81;20998;-81
2021/10/23 08:27:53;;;;;;;5.10;2.17;;;;;;;10.25;56.19;98184.78;1765787;81;21400;-81
2021/10/23 08:30:20;;;;;;;6.12;2.05;;;;;;;10.32;57.67;98178.88;1765421;81;20971;-81
2021/10/23 08:32:47;;;;;;;7.42;2.27;;;;;;;10.43;53.28;98178.61;1764961;81;21002;-81
2021/10/23 08:35:15;;;;;;;4.83;2.17;;;;;;;10.50;54.04;98187.31;1767125;80;21006;-81
2021/10/23 08:37:44;;;;;;;5.70;2.05;;;;;;;10.52;53.23;98184.15;1765879;81;20928;-81
2021/10/23 08:40:12;;;;;;;4.97;1.90;;;;;;;10.50;54.02;98184.19;1765108;81;21026;-81
2021/10/23 08:42:40;;;;;;;6.85;1.90;;;;;;;10.50;52.68;98184.66;1765040;81;21098;-80
2021/10/23 08:45:09;;;;;;;12.10;2.50;;;;;;;10.54;53.29;98193.80;1764987;81;21385;-81
2021/10/23 08:47:38;;;;;;;11.78;2.42;;;;;;;10.63;52.62;98185.20;1764907;81;20983;-81
2021/10/23 08:50:08;;;;;;;3.70;1.85;;;;;;;10.77;52.58;98191.45;1765327;81;21353;-81
2021/10/23 08:52:34;;;;;;;3.10;1.60;;;;;;;10.84;52.68;98189.05;1764973;81;21003;-81
2021/10/23 08:55:01;;;;;;;2.33;1.25;;;;;;;10.82;48.95;98211.63;1765057;81;20944;-81
2021/10/23 08:57:28;;;;;;;4.72;1.80;;;;;;;10.82;50.58;98204.11;1764991;81;21464;-81
2021/10/23 08:59:59;;;;;;;8.10;1.80;;;;;;;10.72;49.60;98194.67;1764991;81;21495;-81
2021/10/23 09:02:27;;;;;;;8.58;1.98;;;;;;;10.78;51.84;98202.45;1765039;81;21407;-80
2021/10/23 09:04:56;;;;;;;7.47;1.92;;;;;;;10.83;51.35;98206.73;1767029;79;21372;-79
2021/10/23 09:07:24;;;;;;;4.12;1.70;;;;;;;10.96;51.09;98203.72;1786661;78;21027;-80
2021/10/23 09:09:58;;;;;;;7.25;1.70;;;;;;;11.06;49.19;98208.33;1792964;80;20968;-80
2021/10/23 09:12:38;;;;;;;3.02;1.55;;;;;;;11.15;51.72;98202.77;1792962;80;21047;-80
2021/10/23 09:15:17;;;;;;;5.55;1.32;;;;;;;11.22;49.99;98201.66;1792913;80;21300;-79
2021/10/23 09:20:45;;;;;;;3.27;1.20;;;;;;;11.39;47.98;98199.44;1667187;86;21084;-80
2021/10/23 09:23:19;;;;;;;3.00;1.10;;;;;;;11.48;46.96;98208.02;1666955;86;21048;-80
2021/10/23 09:25:47;;;;;;;4.20;1.20;;;;;;;11.54;46.72;98204.77;1667183;86;21068;-80
2021/10/23 09:28:18;;;;;;;2.27;0.93;;;;;;;11.61;48.00;98215.59;1666833;86;21032;-80
2021/10/23 09:30:49;;;;;;;6.87;1.92;;;;;;;11.66;43.83;98207.03;1665629;86;21056;-80
2021/10/23 09:33:22;;;;;;;13.65;1.82;;;;;;;11.71;42.79;98224.16;1671462;83;20984;-79
2021/10/23 09:35:52;;;;;;;3.27;1.20;;;;;;;11.73;43.23;98218.33;1704385;83;21016;-80
2021/10/23 09:38:22;;;;;;;5.80;1.40;;;;;;;11.79;43.71;98204.86;1679183;85;21024;-80
2021/10/23 09:40:52;;;;;;;3.67;1.42;;;;;;;11.90;43.71;98200.55;1679287;85;21020;-80
2021/10/23 09:43:28;;;;;;;4.87;1.10;;;;;;;11.95;43.98;98198.61;1699391;83;21013;-81
2021/10/23 09:46:01;;;;;;;20.43;2.92;;;;;;;12.00;44.78;98199.80;1693349;85;21526;-80
2021/10/23 09:48:47;;;;;;;;;;;;;;;12.16;44.23;98195.35;1695903;85;21423;-81
2021/10/23 09:51:25;;;;;;;28.12;2.42;;;;;;;12.39;46.37;98191.92;1692982;85;20171;-81
2021/10/23 09:53:55;;;;;;;6.05;2.83;;;;;;;12.65;43.27;98192.80;1693371;85;21062;-81
2021/10/23 09:56:36;;;;;;;11.10;1.72;;;;;;;12.79;42.99;98197.18;1693785;83;20990;-81
2021/10/23 09:59:11;;;;;;;4.72;1.20;;;;;;;13.02;45.10;98197.28;1693380;85;21501;-81
2021/10/23 10:01:44;;;;;;;2.72;1.12;;;;;;;13.12;42.56;98194.68;1693402;85;21379;-80
2021/10/23 10:04:14;;;;;;;4.22;1.35;;;;;;;13.11;38.94;98191.62;1710692;83;21036;-80
2021/10/23 10:06:49;;;;;;;3.45;1.42;;;;;;;13.18;42.13;98182.95;1679267;85;20961;-81
2021/10/23 10:09:20;;;;;;;1.60;1.10;;;;;;;13.21;41.32;98194.83;1652995;85;21056;-81
2021/10/23 10:11:49;;;;;;;1.80;1.10;;;;;;;13.11;40.04;98184.09;1661613;85;21001;-80
2021/10/23 10:14:23;;;;;;;2.40;1.42;;;;;;;13.07;39.60;98182.89;1649867;87;21075;-80
2021/10/23 10:16:50;;;;;;;3.92;1.35;;;;;;;12.97;41.07;98181.95;1661515;86;21014;-80
2021/10/23 10:19:20;;;;;;;2.90;1.40;;;;;;;13.05;40.91;98180.73;1669967;85;21083;-80
2021/10/23 10:21:52;;;;;;;4.83;1.50;;;;;;;13.25;42.46;98187.11;1699498;83;21033;-81
2021/10/23 10:24:23;;;;;;;3.87;1.25;;;;;;;13.27;41.32;98189.27;1663535;86;21428;-79
2021/10/23 10:27:10;;;;;;;6.72;1.60;;;;;;;13.29;41.15;98177.23;1693200;85;21055;-80
2021/10/23 10:29:52;;;;;;;3.98;1.27;;;;;;;13.34;41.43;98184.10;1699504;84;20998;-80
2021/10/23 10:32:39;;;;;;;3.55;1.12;;;;;;;13.29;40.34;98175.42;1686115;85;21452;-80
2021/10/23 10:35:42;;;;;;;3.22;1.37;;;;;;;13.57;41.02;98177.07;1715565;83;21020;-80
2021/10/23 10:43:13;;;;;;;2.60;1.02;;;;;;;15.64;38.69;98170.08;1670007;86;21469;-80
2021/10/23 10:45:50;;;;;;;3.02;1.62;;;;;;;16.98;37.38;98167.97;1699799;83;21025;-80
2021/10/23 10:48:34;;;;;;;2.95;1.30;;;;;;;18.01;35.47;98151.18;1699546;83;21015;-80
2021/10/23 10:51:07;;;;;;;5.17;1.50;;;;;;;19.04;30.24;98144.28;1670291;85;20996;-81
2021/10/23 10:53:45;;;;;;;3.33;1.50;;;;;;;19.73;34.66;98145.77;1699828;82;21005;-81
2021/10/23 10:56:15;;;;;;;3.55;1.37;;;;;;;20.96;30.08;98149.78;1661267;85;21446;-80
2021/10/23 10:58:55;;;;;;;4.47;1.80;;;;;;;21.52;28.97;98149.03;1692190;85;20988;-80
2021/10/23 11:01:30;;;;;;;2.33;1.25;;;;;;;21.84;30.52;98143.13;1698174;84;21006;-80
2021/10/23 11:04:08;;;;;;;4.25;1.50;;;;;;;22.86;28.79;98149.95;1663523;85;21003;-80
2021/10/23 11:06:45;;;;;;;4.20;1.50;;;;;;;23.53;28.74;98146.09;1693534;85;21027;-81
2021/10/23 11:09:16;;;;;;;4.40;1.55;;;;;;;24.11;27.29;98143.67;1697884;84;21415;-80
2021/10/23 11:11:49;;;;;;;3.52;1.30;;;;;;;24.45;21.75;98137.25;1670145;86;21053;-81
2021/10/23 11:14:36;;;;;;;5.58;1.50;;;;;;;24.04;22.00;98147.00;1670523;85;21021;-79
2021/10/23 11:17:12;;;;;;;8.53;2.20;;;;;;;24.04;25.22;98151.05;1719937;83;21014;-79
2021/10/23 11:19:50;;;;;;;82.42;10.38;;;;;;;24.73;23.51;98146.22;1724349;82;21006;-80
2021/10/23 11:22:27;;;;;;;4.78;1.77;;;;;;;25.63;24.03;98143.03;1720308;83;21026;-80
2021/10/23 11:25:10;;;;;;;12.10;3.47;;;;;;;24.76;20.27;98140.55;1720786;83;21491;-79
2021/10/23 11:27:46;;;;;;;7.42;2.10;;;;;;;25.49;22.35;98140.17;1720977;83;21017;-80
2021/10/23 11:30:29;;;;;;;12.20;2.83;;;;;;;24.94;22.58;98136.77;1698926;83;20969;-80
2021/10/23 11:32:59;;;;;;;;;;;;;;;25.09;22.99;98135.94;1700069;83;20967;-80
2021/10/23 11:35:34;;;;;;;3.42;1.27;;;;;;;24.78;21.47;98138.55;1721051;83;20073;-80
2021/10/23 11:38:10;;;;;;;3.58;1.40;;;;;;;24.84;23.96;98134.02;1720875;83;21026;-80
2021/10/23 11:40:42;;;;;;;1.82;1.35;;;;;;;24.40;24.07;98134.08;1721201;83;20990;-80
2021/10/23 11:43:17;;;;;;;9.90;1.55;;;;;;;23.71;24.73;98132.91;1720213;83;21101;-80
2021/10/23 11:45:45;;;;;;;4.65;1.30;;;;;;;23.32;24.77;98133.77;1719542;83;21106;-80
2021/10/23 11:48:13;;;;;;;3.15;1.10;;;;;;;22.50;23.55;98131.05;1740443;82;21432;-80
2021/10/23 11:50:52;;;;;;;3.47;1.10;;;;;;;21.81;24.51;98135.29;1739847;82;21042;-79
2021/10/23 11:53:31;;;;;;;2.67;1.42;;;;;;;21.31;25.72;98127.17;1740305;82;21019;-80